createdAt,value
2018-07-12T00:04:15.410Z,83.80
2018-07-12T00:06:42.731Z,84.30
2018-07-12T00:09:10.070Z,84.00
2018-07-12T00:11:37.408Z,84.10
2018-07-12T00:14:04.711Z,83.90
2018-07-12T00:16:32.052Z,84.30
2018-07-12T00:18:59.818Z,83.60
2018-07-12T00:21:27.222Z,84.20
2018-07-12T00:23:54.726Z,84.30
2018-07-12T00:26:22.271Z,84.80
2018-07-12T00:28:49.703Z,85.00
2018-07-12T00:31:16.990Z,85.10
2018-07-12T00:33:44.430Z,84.70
2018-07-12T00:36:12.219Z,84.30
2018-07-12T00:38:39.614Z,84.10
2018-07-12T00:41:06.936Z,83.90
2018-07-12T00:43:34.212Z,83.80
2018-07-12T00:46:01.578Z,84.50
2018-07-12T00:48:28.922Z,84.70
2018-07-12T00:50:56.572Z,84.90
2018-07-12T00:53:24.254Z,84.70
2018-07-12T00:55:51.538Z,84.60
2018-07-12T00:58:18.815Z,85.30
2018-07-12T01:00:46.101Z,85.20
2018-07-12T01:03:13.502Z,85.50
2018-07-12T01:05:40.858Z,85.20
2018-07-12T01:08:08.778Z,85.20
2018-07-12T01:13:04.220Z,85.00
2018-07-12T01:17:59.095Z,85.20
2018-07-12T01:20:26.422Z,85.40
2018-07-12T01:22:53.757Z,85.30
2018-07-12T01:25:21.054Z,85.40
2018-07-12T01:27:48.339Z,85.40
2018-07-12T01:30:15.928Z,85.00
2018-07-12T01:32:43.245Z,85.50
2018-07-12T01:35:10.563Z,85.10
2018-07-12T01:37:37.908Z,85.40
2018-07-12T01:40:05.367Z,85.30
2018-07-12T01:42:32.979Z,85.20
2018-07-12T01:45:00.641Z,85.60
2018-07-12T01:47:28.000Z,85.40
2018-07-12T01:49:55.322Z,85.00
2018-07-12T01:52:22.641Z,84.80
2018-07-12T01:54:49.915Z,85.50
2018-07-12T01:57:17.500Z,85.50
2018-07-12T01:59:44.829Z,85.30
2018-07-12T02:02:12.084Z,85.20
2018-07-12T02:04:39.361Z,85.20
2018-07-12T02:07:06.652Z,85.60
2018-07-12T02:09:33.942Z,85.20
2018-07-12T02:12:01.588Z,85.40
2018-07-12T02:14:29.061Z,85.50
2018-07-12T02:16:56.344Z,85.60
2018-07-12T02:19:23.783Z,85.40
2018-07-12T02:21:51.137Z,85.30
2018-07-12T02:24:18.428Z,85.40
2018-07-12T02:26:45.819Z,85.00
2018-07-12T02:29:13.169Z,85.50
2018-07-12T02:31:40.436Z,86.10
2018-07-12T02:34:08.074Z,85.60
2018-07-12T02:36:35.434Z,85.60
2018-07-12T02:39:02.794Z,85.60
2018-07-12T02:41:30.088Z,85.70
2018-07-12T02:43:57.365Z,86.10
2018-07-12T02:46:25.095Z,86.60
2018-07-12T02:48:52.941Z,86.40
2018-07-12T02:51:20.269Z,86.20
2018-07-12T02:53:47.558Z,86.40
2018-07-12T02:56:14.850Z,86.20
2018-07-12T02:58:42.232Z,86.10
2018-07-12T03:03:37.081Z,86.40
2018-07-12T03:06:04.503Z,86.40
2018-07-12T03:08:31.845Z,86.30
2018-07-12T03:10:59.335Z,86.40
2018-07-12T03:15:54.268Z,86.30
2018-07-12T03:18:21.540Z,86.60
2018-07-12T03:20:49.157Z,86.60
2018-07-12T03:25:44.200Z,86.50
2018-07-12T03:30:39.295Z,87.00
2018-07-12T03:33:06.583Z,86.40
2018-07-12T03:35:33.897Z,86.00
2018-07-12T03:38:01.156Z,86.00
2018-07-12T03:40:28.416Z,86.40
2018-07-12T03:42:55.790Z,86.20
2018-07-12T03:45:23.065Z,86.10
2018-07-12T03:47:50.400Z,85.70
2018-07-12T03:52:45.233Z,85.60
2018-07-12T03:57:40.122Z,86.10
2018-07-12T04:00:07.388Z,86.10
2018-07-12T04:02:34.633Z,86.00
2018-07-12T04:05:01.992Z,86.30
2018-07-12T04:07:29.395Z,86.30
2018-07-12T04:09:56.672Z,86.40
2018-07-12T04:12:24.040Z,86.30
2018-07-12T04:14:51.344Z,86.40
2018-07-12T04:17:36.368Z,86.00
2018-07-12T04:20:04.893Z,85.90
2018-07-12T04:22:33.671Z,85.70
2018-07-12T04:25:00.965Z,85.50
2018-07-12T04:27:28.494Z,85.50
2018-07-12T04:29:57.211Z,85.70
2018-07-12T04:32:24.650Z,85.90
2018-07-12T04:34:52.604Z,85.90
2018-07-12T04:39:47.653Z,85.90
2018-07-12T04:42:14.933Z,86.10
2018-07-12T04:44:42.261Z,86.20
2018-07-12T04:47:09.647Z,86.40
2018-07-12T04:49:37.005Z,86.50
2018-07-12T04:52:04.291Z,86.40
2018-07-12T04:54:31.563Z,86.20
2018-07-12T04:56:58.901Z,86.10
2018-07-12T05:01:54.253Z,86.30
2018-07-12T05:04:21.556Z,86.10
2018-07-12T05:06:48.835Z,85.90
2018-07-12T05:09:16.109Z,85.70
2018-07-12T05:11:43.677Z,85.30
2018-07-12T05:14:11.322Z,85.70
2018-07-12T05:16:38.593Z,85.50
2018-07-12T05:19:05.992Z,85.40
2018-07-12T05:21:33.583Z,85.00
2018-07-12T05:24:01.035Z,84.90
2018-07-12T05:26:28.545Z,84.70
2018-07-12T05:28:55.976Z,84.70
2018-07-12T05:31:23.359Z,84.20
2018-07-12T05:36:32.241Z,85.10
2018-07-12T05:39:01.610Z,84.30
2018-07-12T05:41:30.097Z,84.80
2018-07-12T05:43:58.926Z,84.40
2018-07-12T05:46:27.477Z,83.80
2018-07-12T05:48:56.296Z,84.30
2018-07-12T05:51:25.660Z,84.00
2018-07-12T05:56:24.133Z,83.70
2018-07-12T05:58:53.213Z,84.00
2018-07-12T06:01:33.352Z,84.20
2018-07-12T06:04:01.741Z,83.80
2018-07-12T06:09:00.201Z,83.70
2018-07-12T06:11:29.896Z,83.50
2018-07-12T06:13:58.560Z,83.70
2018-07-12T06:16:27.029Z,83.40
2018-07-12T06:18:55.556Z,83.10
2018-07-12T06:21:24.517Z,82.90
2018-07-12T06:23:53.304Z,82.50
2018-07-12T06:26:21.877Z,82.40
2018-07-12T06:28:51.425Z,82.20
2018-07-12T06:31:20.052Z,82.10
2018-07-12T06:33:54.138Z,82.40
2018-07-12T06:36:23.093Z,82.40
2018-07-12T06:38:51.691Z,82.30
2018-07-12T06:41:20.230Z,82.40
2018-07-12T06:43:48.991Z,82.10
2018-07-12T06:46:22.185Z,81.70
2018-07-12T06:49:14.234Z,81.30
2018-07-12T06:54:35.419Z,81.30
2018-07-12T06:59:33.052Z,80.30
2018-07-12T07:02:01.825Z,80.60
2018-07-12T07:04:30.348Z,80.20
2018-07-12T07:06:59.689Z,80.20
2018-07-12T07:09:28.287Z,80.00
2018-07-12T07:11:57.597Z,80.40
2018-07-12T07:14:27.244Z,79.90
2018-07-12T07:16:55.884Z,80.20
2018-07-12T07:21:53.069Z,80.00
2018-07-12T07:24:21.608Z,79.00
2018-07-12T07:26:51.120Z,78.60
2018-07-12T07:32:40.990Z,78.80
2018-07-12T07:35:14.588Z,78.40
2018-07-12T07:37:56.977Z,78.00
2018-07-12T07:40:34.606Z,78.30
2018-07-12T07:43:11.144Z,78.20
2018-07-12T07:45:39.516Z,77.50
2018-07-12T07:48:08.364Z,77.20
2018-07-12T07:50:37.249Z,76.60
2018-07-12T07:53:05.641Z,76.00
2018-07-12T07:55:34.088Z,75.80
2018-07-12T07:58:02.732Z,76.80
2018-07-12T08:00:31.421Z,76.80
2018-07-12T08:03:00.117Z,76.10
2018-07-12T08:05:28.590Z,76.50
2018-07-12T08:07:57.254Z,76.80
2018-07-12T08:10:25.761Z,75.30
2018-07-12T08:12:54.343Z,76.10
2018-07-12T08:15:23.189Z,75.40
2018-07-12T08:17:51.605Z,75.50
2018-07-12T08:20:21.561Z,75.00
2018-07-12T08:22:50.357Z,74.80
2018-07-12T08:25:19.813Z,74.10
2018-07-12T08:27:59.737Z,74.50
2018-07-12T08:30:28.178Z,74.20
2018-07-12T08:33:00.969Z,72.80
2018-07-12T08:35:29.476Z,73.30
2018-07-12T08:37:58.199Z,72.90
2018-07-12T08:40:26.767Z,73.40
2018-07-12T08:42:55.194Z,73.10
2018-07-12T08:45:23.729Z,72.80
2018-07-12T08:47:52.223Z,72.00
2018-07-12T08:50:21.008Z,71.80
2018-07-12T08:55:17.713Z,71.70
2018-07-12T08:57:46.652Z,72.40
2018-07-12T09:00:14.947Z,72.20
2018-07-12T09:02:43.532Z,72.10
2018-07-12T09:05:12.050Z,71.10
2018-07-12T09:07:40.448Z,70.90
2018-07-12T09:10:08.941Z,71.90
2018-07-12T09:12:37.824Z,71.30
2018-07-12T09:15:06.366Z,72.00
2018-07-12T09:20:02.883Z,71.20
2018-07-12T09:22:31.383Z,71.80
2018-07-12T09:24:59.972Z,71.00
2018-07-12T09:27:28.356Z,70.70
2018-07-12T09:29:57.484Z,70.60
2018-07-12T09:32:25.796Z,71.30
2018-07-12T09:34:54.362Z,69.80
2018-07-12T09:37:22.696Z,70.10
2018-07-12T09:42:19.140Z,69.90
2018-07-12T09:44:47.565Z,69.70
2018-07-12T09:47:15.917Z,69.70
2018-07-12T09:49:44.338Z,70.00
2018-07-12T09:54:46.268Z,69.30
2018-07-12T09:57:26.108Z,68.80
2018-07-12T10:02:28.314Z,68.80
2018-07-12T10:07:31.022Z,68.60
2018-07-12T10:09:59.449Z,67.80
2018-07-12T10:12:37.272Z,68.50
2018-07-12T10:15:10.667Z,68.10
2018-07-12T10:17:48.310Z,67.90
2018-07-12T10:20:16.702Z,67.60
2018-07-12T10:22:45.057Z,67.00
2018-07-12T10:25:13.472Z,66.40
2018-07-12T10:27:41.777Z,67.20
2018-07-12T10:30:09.780Z,66.80
2018-07-12T10:32:38.083Z,65.80
2018-07-12T10:35:06.548Z,66.00
2018-07-12T10:37:34.978Z,64.50
2018-07-12T10:40:21.684Z,64.00
2018-07-12T10:42:51.799Z,63.30
2018-07-12T10:45:20.141Z,63.50
2018-07-12T10:47:48.533Z,64.60
2018-07-12T10:50:16.867Z,64.60
2018-07-12T10:52:45.177Z,63.10
2018-07-12T10:55:13.572Z,62.70
2018-07-12T11:00:11.088Z,61.90
2018-07-12T11:02:39.412Z,61.90
2018-07-12T11:05:07.829Z,62.80
2018-07-12T11:07:37.181Z,62.20
2018-07-12T11:12:33.685Z,59.50
2018-07-12T11:15:01.982Z,59.70
2018-07-12T11:17:30.332Z,60.00
2018-07-12T11:22:27.007Z,59.20
2018-07-12T11:27:23.445Z,59.50
2018-07-12T11:29:54.656Z,59.50
2018-07-12T11:32:22.940Z,59.20
2018-07-12T11:34:51.770Z,59.70
2018-07-12T11:37:25.117Z,58.30
2018-07-12T11:39:53.849Z,58.20
2018-07-12T11:42:22.174Z,58.00
2018-07-12T11:44:50.680Z,58.60
2018-07-12T11:47:19.467Z,58.10
2018-07-12T11:49:47.743Z,58.00
2018-07-12T11:52:16.347Z,58.00
2018-07-12T11:54:44.780Z,58.10
2018-07-12T11:57:13.064Z,58.40
2018-07-12T11:59:41.401Z,57.40
2018-07-12T12:02:09.764Z,57.40
2018-07-12T12:09:34.154Z,57.20
2018-07-12T12:12:02.578Z,58.50
2018-07-12T12:14:30.885Z,58.10
2018-07-12T12:16:59.304Z,58.70
2018-07-12T12:19:27.626Z,57.80
2018-07-12T12:21:55.989Z,56.60
2018-07-12T12:24:24.337Z,57.40
2018-07-12T12:26:53.122Z,57.00
2018-07-12T12:29:22.119Z,55.80
2018-07-12T12:31:50.555Z,57.00
2018-07-12T12:34:18.970Z,57.10
2018-07-12T12:36:47.288Z,56.60
2018-07-12T12:39:15.596Z,55.90
2018-07-12T12:41:43.986Z,55.60
2018-07-12T12:44:12.277Z,56.00
2018-07-12T12:46:40.592Z,56.30
2018-07-12T12:51:36.909Z,56.60
2018-07-12T12:54:05.204Z,57.10
2018-07-12T12:56:33.481Z,56.10
2018-07-12T12:59:01.784Z,56.00
2018-07-12T13:01:30.049Z,56.10
2018-07-12T13:03:58.337Z,55.70
2018-07-12T13:06:26.701Z,55.80
2018-07-12T13:08:54.999Z,55.20
2018-07-12T13:11:23.277Z,54.30
2018-07-12T13:16:20.217Z,55.40
2018-07-12T13:18:48.516Z,54.80
2018-07-12T13:21:16.810Z,55.60
2018-07-12T13:23:45.108Z,55.20
2018-07-12T13:26:13.466Z,55.40
2018-07-12T13:28:41.777Z,55.00
2018-07-12T13:31:10.131Z,55.70
2018-07-12T13:33:38.413Z,54.50
2018-07-12T13:36:07.520Z,54.70
2018-07-12T13:38:35.848Z,54.30
2018-07-12T13:41:04.214Z,54.40
2018-07-12T13:43:32.525Z,54.10
2018-07-12T13:46:00.839Z,54.80
2018-07-12T13:48:29.157Z,55.70
2018-07-12T13:50:57.436Z,54.90
2018-07-12T13:58:22.024Z,54.20
2018-07-12T14:00:50.443Z,54.40
2018-07-12T14:03:18.730Z,54.20
2018-07-12T14:05:47.047Z,54.40
2018-07-12T14:08:15.345Z,54.70
2018-07-12T14:10:43.649Z,54.80
2018-07-12T14:15:39.973Z,54.70
2018-07-12T14:18:08.303Z,54.70
2018-07-12T14:23:04.616Z,55.30
2018-07-12T14:25:32.904Z,54.80
2018-07-12T14:28:01.574Z,55.30
2018-07-12T14:30:29.887Z,54.50
2018-07-12T14:32:58.244Z,54.90
2018-07-12T14:37:54.750Z,54.90
2018-07-12T14:40:23.341Z,55.00
2018-07-12T14:42:51.642Z,55.60
2018-07-12T14:45:19.927Z,54.90
2018-07-12T14:47:48.276Z,53.70
2018-07-12T14:50:16.590Z,55.00
2018-07-12T14:52:44.941Z,54.20
2018-07-12T14:55:13.232Z,54.90
2018-07-12T14:57:41.550Z,56.20
2018-07-12T15:00:09.962Z,54.70
2018-07-12T15:02:38.657Z,54.90
2018-07-12T15:05:07.141Z,55.00
2018-07-12T15:07:36.205Z,55.50
2018-07-12T15:10:04.622Z,55.60
2018-07-12T15:12:32.896Z,55.50
2018-07-12T15:15:01.605Z,55.00
2018-07-12T15:19:58.138Z,55.20
2018-07-12T15:22:26.518Z,55.70
2018-07-12T15:24:54.895Z,56.10
2018-07-12T15:27:23.267Z,55.80
2018-07-12T15:29:51.800Z,56.40
2018-07-12T15:32:20.140Z,56.20
2018-07-12T15:34:48.901Z,55.90
2018-07-12T15:37:17.195Z,56.30
2018-07-12T15:39:45.697Z,56.20
2018-07-12T15:42:13.998Z,56.40
2018-07-12T15:44:42.301Z,56.70
2018-07-12T15:52:06.792Z,57.50
2018-07-12T15:54:35.172Z,56.90
2018-07-12T15:57:03.519Z,57.80
2018-07-12T15:59:31.856Z,58.80
2018-07-12T16:02:00.166Z,59.10
2018-07-12T16:04:28.905Z,59.30
2018-07-12T16:06:57.446Z,59.30
2018-07-12T16:09:25.843Z,59.10
2018-07-12T16:11:54.621Z,59.10
2018-07-12T16:14:22.993Z,58.90
2018-07-12T16:16:51.687Z,58.90
2018-07-12T16:21:48.179Z,59.00
2018-07-12T16:24:16.534Z,58.70
2018-07-12T16:26:45.135Z,59.50
2018-07-12T16:29:13.445Z,60.40
2018-07-12T16:31:41.902Z,59.90
2018-07-12T16:34:10.289Z,60.00
2018-07-12T16:36:38.666Z,60.60
2018-07-12T16:39:07.510Z,60.40
2018-07-12T16:44:04.341Z,61.10
2018-07-12T16:46:32.720Z,60.80
2018-07-12T16:51:29.444Z,60.10
2018-07-12T16:53:57.830Z,59.80
2018-07-12T16:58:54.630Z,61.30
2018-07-12T17:01:23.108Z,61.50
2018-07-12T17:03:51.488Z,61.70
2018-07-12T17:06:19.793Z,62.10
2018-07-12T17:08:48.272Z,62.10
2018-07-12T17:11:16.640Z,62.10
2018-07-12T17:13:44.992Z,62.10
2018-07-12T17:16:13.448Z,62.70
2018-07-12T17:18:41.807Z,63.10
2018-07-12T17:21:10.118Z,64.30
2018-07-12T17:23:38.484Z,63.60
2018-07-12T17:26:06.856Z,63.70
2018-07-12T17:28:35.184Z,64.80
2018-07-12T17:31:03.611Z,65.10
2018-07-12T17:33:31.958Z,64.90
2018-07-12T17:36:00.345Z,65.30
2018-07-12T17:38:28.733Z,65.20
2018-07-12T17:40:58.203Z,65.40
2018-07-12T17:43:26.569Z,65.10
2018-07-12T17:45:55.043Z,66.00
2018-07-12T17:48:24.740Z,65.80
2018-07-12T17:50:53.399Z,65.40
2018-07-12T17:53:21.786Z,65.90
2018-07-12T17:58:18.275Z,66.60
2018-07-12T18:00:46.639Z,67.50
2018-07-12T18:03:15.045Z,67.70
2018-07-12T18:05:43.681Z,67.70
2018-07-12T18:08:15.876Z,67.40
2018-07-12T18:10:44.202Z,67.70
2018-07-12T18:13:12.572Z,67.90
2018-07-12T18:15:41.064Z,67.90
2018-07-12T18:18:09.475Z,67.90
2018-07-12T18:20:37.836Z,67.90
2018-07-12T18:23:06.396Z,68.30
2018-07-12T18:28:03.152Z,68.70
2018-07-12T18:30:31.678Z,68.80
2018-07-12T18:33:01.117Z,68.70
2018-07-12T18:35:29.939Z,69.10
2018-07-12T18:37:58.392Z,69.10
2018-07-12T18:40:26.785Z,69.40
2018-07-12T18:42:55.466Z,69.60
2018-07-12T18:47:53.139Z,71.10
2018-07-12T18:50:21.586Z,70.90
2018-07-12T18:52:50.372Z,71.30
2018-07-12T18:55:19.373Z,71.60
2018-07-12T18:57:48.016Z,71.50
2018-07-12T19:00:17.112Z,71.60
2018-07-12T19:02:45.901Z,71.80
2018-07-12T19:05:14.342Z,71.90
2018-07-12T19:07:43.508Z,72.50
2018-07-12T19:10:12.169Z,72.50
2018-07-12T19:15:09.830Z,72.70
2018-07-12T19:17:38.368Z,72.60
2018-07-12T19:22:35.402Z,72.50
2018-07-12T19:25:04.022Z,72.50
2018-07-12T19:27:32.618Z,72.80
2018-07-12T19:30:01.167Z,72.80
2018-07-12T19:32:30.484Z,72.90
2018-07-12T19:34:59.542Z,72.90
2018-07-12T19:37:28.727Z,73.30
2018-07-12T19:39:57.592Z,73.20
2018-07-12T19:42:26.280Z,73.50
2018-07-12T19:44:55.832Z,74.10
2018-07-12T19:47:24.957Z,74.30
2018-07-12T19:49:53.700Z,74.30
2018-07-12T19:54:50.445Z,74.80
2018-07-12T19:57:19.455Z,74.80
2018-07-12T20:02:16.949Z,74.70
2018-07-12T20:04:45.957Z,74.80
2018-07-12T20:07:14.672Z,75.20
2018-07-12T20:09:43.310Z,75.70
2018-07-12T20:12:11.687Z,75.40
2018-07-12T20:14:40.069Z,76.10
2018-07-12T20:17:10.065Z,76.00
2018-07-12T20:19:38.788Z,76.30
2018-07-12T20:22:07.465Z,76.00
2018-07-12T20:24:36.264Z,76.20
2018-07-12T20:27:04.832Z,76.10
2018-07-12T20:29:33.425Z,76.10
2018-07-12T20:32:01.826Z,75.90
2018-07-12T20:34:30.657Z,76.00
2018-07-12T20:36:59.374Z,76.30
2018-07-12T20:39:28.014Z,76.30
2018-07-12T20:41:56.905Z,76.30
2018-07-12T20:44:26.772Z,76.00
2018-07-12T20:46:55.358Z,76.10
2018-07-12T20:49:24.047Z,76.40
2018-07-12T20:51:53.178Z,76.30
2018-07-12T20:54:21.666Z,76.50
2018-07-12T20:56:50.291Z,76.10
2018-07-12T20:59:19.324Z,76.00
2018-07-12T21:01:47.766Z,76.00
2018-07-12T21:04:16.448Z,76.10
2018-07-12T21:06:44.896Z,76.20
2018-07-12T21:09:13.449Z,76.50
2018-07-12T21:11:42.251Z,76.80
2018-07-12T21:14:10.825Z,76.90
2018-07-12T21:16:39.266Z,76.70
2018-07-12T21:21:36.113Z,77.00
2018-07-12T21:24:04.550Z,77.40
2018-07-12T21:31:29.598Z,77.50
2018-07-12T21:33:58.577Z,77.30
2018-07-12T21:36:27.490Z,77.00
2018-07-12T21:38:55.966Z,77.70
2018-07-12T21:44:45.156Z,77.50
2018-07-12T21:47:13.891Z,78.20
2018-07-12T21:49:42.646Z,78.20
2018-07-12T21:52:11.931Z,78.20
2018-07-12T21:54:40.396Z,78.50
2018-07-12T21:57:08.701Z,78.10
2018-07-12T21:59:37.165Z,78.40
2018-07-12T22:02:05.654Z,78.70
2018-07-12T22:04:34.088Z,78.80
2018-07-12T22:07:21.786Z,78.80
2018-07-12T22:09:50.593Z,78.10
2018-07-12T22:12:18.950Z,78.20
2018-07-12T22:14:47.331Z,78.10
2018-07-12T22:19:43.868Z,78.10
2018-07-12T22:22:12.349Z,78.10
2018-07-12T22:24:41.104Z,78.20
2018-07-12T22:27:09.468Z,77.90
2018-07-12T22:29:37.915Z,78.10
2018-07-12T22:32:07.001Z,78.00
2018-07-12T22:34:35.360Z,77.70
2018-07-12T22:37:04.445Z,77.70
2018-07-12T22:39:33.106Z,77.40
2018-07-12T22:44:30.048Z,77.90
2018-07-12T22:46:59.342Z,77.90
2018-07-12T22:54:32.873Z,77.90
2018-07-12T22:57:04.666Z,77.70
2018-07-12T22:59:49.761Z,79.00
2018-07-12T23:02:20.603Z,78.90
2018-07-12T23:04:50.919Z,79.10
2018-07-12T23:12:17.525Z,80.10
2018-07-12T23:17:14.032Z,79.50
2018-07-12T23:19:42.692Z,78.70
2018-07-12T23:22:11.258Z,79.00
2018-07-12T23:24:39.913Z,79.70
2018-07-12T23:27:08.424Z,78.90
2018-07-12T23:29:36.864Z,79.10
2018-07-12T23:32:05.562Z,79.10
2018-07-12T23:34:34.325Z,78.80
2018-07-12T23:37:02.957Z,79.00
2018-07-12T23:39:31.429Z,78.90
2018-07-12T23:42:00.088Z,78.60
2018-07-12T23:44:28.933Z,78.90
2018-07-12T23:46:57.664Z,78.70
2018-07-12T23:51:54.709Z,78.00
2018-07-12T23:54:23.507Z,77.80
2018-07-12T23:56:52.723Z,78.00
2018-07-12T23:59:21.198Z,78.30
